Kealakekua, Hawaii
Current Conditions -  °F | °C
As of 5:53 AM on Thursday 30 Oct 2014 (Local Time) from PHKO Reporting Station
Clear Clear  
Wind Chill: 75°   Ceiling: Unl
Heat Index: 75°   Visibility: 10mi
Dew Point: 66°   Wind: 3mph
Humidity: 73%   Direction: 100°E
Pressure: 29.98"   Gusts: NA
Location:  19.51°N, 155.91°W
Report Text: PHKO 301553Z 10003KT 10SM CLR 24/19 A2998 RMK AO2 SLP153 T02390189
Loading
Personal Weather Stations






























Interactive Weather Map
Tropical Storm Tracking
New forecast layout! Learn more

10-Day Weather Forecast

Advertisements
Track Severe Weather on mobile